首页
METAR-TAF:

METAR-TAF

机场 :

利伯維爾國際機場

利伯维尔, 加蓬

纬度: 00-27N, 经度: 009-25E, 海拔: 12米

当前天气观测

该预报发布于38分钟前的14:00 UTC
风速10节,风向西转西南
温度 30°C
湿度 75%
气压 1009 hPa
能见度10公里或以上
少量云层高于1600英尺
少量云层高于2000英尺, 积雨云.

METAR: FOOL 231400Z 24010KT 9999 FEW016 FEW020CB 30/25 Q1009 NOSIG

时间: 15:38 (14:38 UTC)

预报

该预报发布于3小时和38分钟前的11:00 UTC
预报有效从23日的 12点(UTC)到 24日的 18点(UTC)
风速7节,风向西南
能见度10公里或以上
散云层高于1500英尺
少量云层高于2000英尺, 积雨云.
几率 30% :
短暂存在
从 23日的 13点(UTC)到 23日的 20点(UTC)
能見度: 4000
多云层高于1300英尺
少量云层高于2000英尺, 积雨云.
雷暴, 雨
短暂存在
从 24日的 02点(UTC)到 24日的 09点(UTC)
能見度: 2500
多云层高于800英尺
少量云层高于1600英尺, 积雨云.
阴天层高于2600英尺
雷暴, 雨

TAF: FOOL 231100Z 2312/2418 22007KT 9999 SCT015 FEW020CB PROB30 TEMPO 2313/2320 4000 TSRA BKN013 FEW020CB TEMPO 2402/2409 2500 TSRA BKN008 FEW016CB OVC026

超过4000个机场的气象观测和天气预报(METAR&TAF报告)。

可查询的气象台以黄色和红色小点在地图上表示。

将鼠标移到小点上方,可查看气象台名称。

然后点击查看天气观测和预报。

如需切换地图:点击带黑十字的绿色按钮放大地图;点击带横线的绿色按钮缩小地图;或者点击绿色箭头查看邻近地区的地图。


METAR-TAF: